Time;durP1;ratioP1;P1;durP2;ratioP2;P2;SDS_P1;SDS_P2;PMS_P1;PMS_P2;Temp;Humidity;BMP_temperature;BMP_pressure;BME280_temperature;BME280_humidity;BME280_pressure;Samples;Min_cycle;Max_cycle;Signal;HPM_P1;HPM_P2
2024/04/02 01:45:56;;;;;;;14.75;11.57;;;7.20;83.50;;;;;;4709148;30;20527;-76
2024/04/02 01:48:43;;;;;;;14.82;11.63;;;7.20;83.50;;;;;;4757940;29;20491;-77
2024/04/02 01:52:02;;;;;;;12.60;10.68;;;7.10;83.40;;;;;;4784375;29;20050;-76
2024/04/02 01:54:41;;;;;;;11.82;10.57;;;7.10;83.30;;;;;;4784285;29;20423;-76
2024/04/02 01:57:10;;;;;;;13.27;11.23;;;7.10;83.40;;;;;;4784868;29;20419;-76
2024/04/02 01:59:35;;;;;;;15.02;12.05;;;7.10;83.30;;;;;;4767896;30;20122;-76
2024/04/02 02:02:01;;;;;;;15.30;13.00;;;7.00;83.30;;;;;;4784367;29;20138;-76
2024/04/02 02:04:27;;;;;;;16.35;13.70;;;7.00;83.30;;;;;;4779481;30;20090;-76
2024/04/02 02:06:52;;;;;;;15.77;13.50;;;7.00;83.30;;;;;;4783192;30;20059;-76
2024/04/02 02:09:18;;;;;;;20.15;14.15;;;7.00;83.30;;;;;;4780918;29;20056;-76
2024/04/02 02:11:44;;;;;;;16.08;13.38;;;7.00;83.30;;;;;;4784319;30;20055;-74
2024/04/02 02:14:09;;;;;;;19.20;13.65;;;6.90;83.40;;;;;;4786507;29;20059;-74
2024/04/02 02:16:35;;;;;;;17.73;14.50;;;6.90;83.40;;;;;;4767138;29;20055;-74
2024/04/02 02:19:00;;;;;;;17.42;14.20;;;6.90;83.40;;;;;;4789027;29;20429;-74
2024/04/02 02:21:26;;;;;;;20.48;13.82;;;6.90;83.30;;;;;;4766312;29;20056;-72
2024/04/02 02:23:52;;;;;;;18.13;13.63;;;6.80;83.30;;;;;;4781362;30;20056;-77
2024/04/02 02:26:20;;;;;;;14.60;12.85;;;6.80;83.30;;;;;;4770762;29;20051;-78
2024/04/02 02:28:45;;;;;;;17.55;13.63;;;6.70;83.20;;;;;;4773824;29;20644;-77
2024/04/02 02:31:12;;;;;;;14.55;12.18;;;6.70;83.20;;;;;;4766430;30;20396;-75
2024/04/02 02:33:37;;;;;;;18.67;13.00;;;6.70;83.20;;;;;;4770034;30;20531;-75
2024/04/02 02:36:03;;;;;;;16.50;13.68;;;6.70;83.20;;;;;;4790463;29;20052;-75
2024/04/02 02:38:29;;;;;;;20.77;12.55;;;6.70;83.30;;;;;;4770195;30;20560;-75
2024/04/02 02:41:01;;;;;;;15.73;12.50;;;6.70;83.30;;;;;;4770155;29;20063;-75
2024/04/02 02:43:27;;;;;;;13.23;11.45;;;6.60;83.30;;;;;;4783006;30;20052;-75
2024/04/02 02:45:53;;;;;;;14.48;12.32;;;6.60;83.30;;;;;;4785640;30;20414;-75
2024/04/02 02:48:19;;;;;;;13.13;11.65;;;6.60;83.30;;;;;;4786461;29;20043;-74
2024/04/02 02:50:44;;;;;;;17.38;11.75;;;6.60;83.30;;;;;;4774483;29;20065;-74
2024/04/02 02:53:10;;;;;;;16.50;11.85;;;6.60;83.30;;;;;;4781005;29;20059;-72
2024/04/02 02:55:36;;;;;;;16.52;11.85;;;6.60;83.40;;;;;;4789029;30;20559;-72
2024/04/02 02:58:01;;;;;;;15.65;11.95;;;6.70;83.40;;;;;;4788847;30;20140;-74
2024/04/02 03:00:27;;;;;;;16.77;11.93;;;6.60;83.30;;;;;;4773221;30;20067;-74
2024/04/02 03:02:53;;;;;;;14.48;10.85;;;6.60;83.40;;;;;;4757885;30;20414;-74
2024/04/02 03:05:18;;;;;;;12.15;10.65;;;6.60;83.40;;;;;;4772144;30;20404;-73
2024/04/02 03:07:44;;;;;;;15.35;11.27;;;6.70;83.50;;;;;;4780504;29;20063;-73
2024/04/02 03:10:09;;;;;;;12.05;10.55;;;6.70;83.50;;;;;;4799183;29;20051;-74
2024/04/02 03:12:35;;;;;;;14.60;10.57;;;6.80;83.50;;;;;;4803518;29;20042;-73
2024/04/02 03:15:02;;;;;;;17.63;10.35;;;6.80;83.40;;;;;;4789996;29;20343;-73
2024/04/02 03:17:28;;;;;;;14.23;9.80;;;6.80;83.40;;;;;;4777777;29;20066;-73
2024/04/02 03:19:53;;;;;;;10.82;9.50;;;6.80;83.40;;;;;;4772759;30;20197;-72
2024/04/02 03:22:19;;;;;;;10.85;8.98;;;6.70;83.30;;;;;;4788803;29;20138;-74
2024/04/02 03:24:44;;;;;;;11.88;8.40;;;6.80;83.30;;;;;;4788797;30;20133;-73
2024/04/02 03:27:10;;;;;;;13.50;8.63;;;6.80;83.30;;;;;;4790249;29;20536;-73
2024/04/02 03:29:36;;;;;;;12.02;7.75;;;6.80;83.30;;;;;;4788532;30;20136;-73
2024/04/02 03:32:01;;;;;;;11.15;8.75;;;6.80;83.30;;;;;;4785419;30;20078;-74
2024/04/02 03:34:27;;;;;;;10.57;8.13;;;6.80;83.30;;;;;;4788293;30;20052;-73
2024/04/02 03:36:53;;;;;;;14.73;8.48;;;6.80;83.30;;;;;;4771557;30;20219;-74
2024/04/02 03:39:20;;;;;;;10.93;8.32;;;6.80;83.30;;;;;;4788650;29;20096;-74
2024/04/02 03:41:47;;;;;;;12.38;8.93;;;6.80;83.20;;;;;;4772951;30;20063;-73
2024/04/02 03:44:12;;;;;;;11.40;8.88;;;6.80;83.20;;;;;;4771756;30;20143;-73
2024/04/02 03:46:38;;;;;;;13.40;9.73;;;6.80;83.20;;;;;;4788657;29;20100;-73
2024/04/02 03:49:04;;;;;;;12.07;9.73;;;6.80;83.20;;;;;;4788528;30;20055;-73
2024/04/02 03:51:30;;;;;;;13.52;9.48;;;6.80;83.20;;;;;;4786799;30;20463;-74
2024/04/02 03:53:56;;;;;;;13.60;9.98;;;6.80;83.20;;;;;;4772269;30;20055;-74
2024/04/02 03:56:21;;;;;;;15.50;10.85;;;6.70;83.20;;;;;;4756865;30;20472;-74
2024/04/02 03:58:47;;;;;;;12.00;9.85;;;6.70;83.20;;;;;;4778274;30;20094;-74
2024/04/02 04:01:13;;;;;;;13.75;10.57;;;6.70;83.20;;;;;;4778960;30;20112;-74
2024/04/02 04:03:38;;;;;;;13.93;10.05;;;6.70;83.20;;;;;;4783835;29;20062;-74
2024/04/02 04:06:05;;;;;;;15.57;9.95;;;6.70;83.20;;;;;;4804600;29;20051;-74
2024/04/02 04:08:32;;;;;;;12.88;9.82;;;6.70;83.30;;;;;;4786579;29;20367;-74
2024/04/02 04:10:58;;;;;;;13.00;9.20;;;6.70;83.30;;;;;;4771691;30;20059;-74
2024/04/02 04:13:24;;;;;;;11.98;8.98;;;6.70;83.30;;;;;;4787392;29;20085;-72
2024/04/02 04:15:55;;;;;;;12.07;9.35;;;6.70;83.30;;;;;;4788271;30;20043;-74
2024/04/02 04:18:22;;;;;;;11.52;9.38;;;6.70;83.30;;;;;;4789842;29;20136;-74
2024/04/02 04:21:03;;;;;;;11.45;8.80;;;6.70;83.30;;;;;;4772475;30;20060;-74
2024/04/02 04:23:29;;;;;;;11.82;8.88;;;6.70;83.30;;;;;;4803219;29;20043;-73
2024/04/02 04:26:02;;;;;;;11.38;9.07;;;6.70;83.30;;;;;;4773780;30;20044;-74
2024/04/02 04:28:28;;;;;;;14.43;9.13;;;6.70;83.30;;;;;;4775349;29;20066;-74
2024/04/02 04:30:59;;;;;;;12.43;9.32;;;6.60;83.30;;;;;;4795284;29;20431;-74
2024/04/02 04:33:26;;;;;;;12.60;9.68;;;6.60;83.30;;;;;;4771409;30;20146;-74
2024/04/02 04:35:52;;;;;;;12.10;9.50;;;6.60;83.40;;;;;;4790227;29;20116;-74
2024/04/02 04:38:19;;;;;;;12.30;9.27;;;6.60;83.40;;;;;;4769696;30;20083;-74
2024/04/02 04:40:45;;;;;;;13.13;9.70;;;6.60;83.40;;;;;;4787319;30;20066;-75
2024/04/02 04:43:13;;;;;;;14.23;10.68;;;6.60;83.40;;;;;;4770534;30;20043;-73
2024/04/02 04:45:38;;;;;;;12.27;9.95;;;6.60;83.40;;;;;;4786569;30;20047;-74
2024/04/02 04:48:08;;;;;;;13.55;10.60;;;6.70;83.40;;;;;;4796154;29;20051;-74
2024/04/02 04:50:37;;;;;;;15.07;10.95;;;6.50;83.40;;;;;;4793532;29;20599;-74
2024/04/02 04:53:03;;;;;;;14.68;11.88;;;6.60;83.50;;;;;;4788555;29;20057;-74
2024/04/02 04:55:32;;;;;;;15.88;10.77;;;6.60;83.50;;;;;;4765397;30;20063;-74
2024/04/02 04:57:58;;;;;;;14.52;9.85;;;6.80;83.60;;;;;;4786712;30;20054;-74
2024/04/02 05:00:24;;;;;;;14.30;10.77;;;6.60;83.60;;;;;;4786725;30;20515;-74
2024/04/02 05:02:50;;;;;;;13.70;10.45;;;6.60;83.60;;;;;;4774166;29;20061;-74
2024/04/02 05:05:16;;;;;;;13.00;10.95;;;6.50;83.60;;;;;;4804550;29;20050;-74
2024/04/02 05:08:14;;;;;;;15.18;10.82;;;6.50;83.60;;;;;;4797308;29;20399;-74
2024/04/02 05:10:40;;;;;;;15.68;11.02;;;6.50;83.60;;;;;;4776117;29;20082;-73
2024/04/02 05:13:06;;;;;;;15.80;10.43;;;6.50;83.70;;;;;;4780881;29;21648;-76
2024/04/02 05:15:32;;;;;;;15.82;11.10;;;6.60;83.80;;;;;;4779644;29;20113;-74
2024/04/02 05:17:57;;;;;;;14.52;11.18;;;6.50;83.80;;;;;;4781414;29;20659;-77
2024/04/02 05:20:23;;;;;;;14.60;11.02;;;6.50;83.90;;;;;;4759632;30;20411;-74
2024/04/02 05:22:49;;;;;;;10.88;9.57;;;6.40;83.90;;;;;;4773885;29;20055;-74
2024/04/02 05:25:18;;;;;;;15.60;10.77;;;6.40;84.00;;;;;;4757421;30;20148;-74
2024/04/02 05:27:44;;;;;;;13.23;9.45;;;6.40;84.00;;;;;;4744153;30;20146;-74
2024/04/02 05:30:12;;;;;;;14.40;9.85;;;6.40;84.20;;;;;;4775866;30;20493;-74
2024/04/02 05:32:38;;;;;;;12.90;9.88;;;6.40;84.10;;;;;;4775452;30;20051;-73
2024/04/02 05:35:04;;;;;;;14.25;9.85;;;6.50;84.20;;;;;;4775094;30;20059;-75
2024/04/02 05:37:29;;;;;;;14.85;10.32;;;6.50;84.20;;;;;;4775933;30;20051;-74
2024/04/02 05:39:55;;;;;;;13.55;10.18;;;6.80;84.30;;;;;;4775239;29;20059;-75
2024/04/02 05:42:21;;;;;;;13.10;10.27;;;6.60;84.30;;;;;;4776232;30;20143;-75
2024/04/02 05:44:47;;;;;;;14.70;9.85;;;6.60;84.40;;;;;;4776266;30;20055;-75
2024/04/02 05:47:13;;;;;;;17.10;11.13;;;6.70;84.40;;;;;;4758893;30;20067;-73
2024/04/02 05:49:39;;;;;;;15.80;10.40;;;6.80;84.50;;;;;;4774723;30;20057;-73
2024/04/02 05:52:05;;;;;;;19.13;10.70;;;7.00;84.60;;;;;;4759310;30;20051;-75
2024/04/02 05:54:30;;;;;;;16.95;11.25;;;7.10;84.70;;;;;;4774037;30;20067;-74
2024/04/02 05:56:57;;;;;;;14.27;10.70;;;7.20;84.70;;;;;;4759703;30;20066;-74
2024/04/02 05:59:22;;;;;;;15.45;9.90;;;7.30;84.70;;;;;;4758764;30;20090;-74
2024/04/02 06:01:48;;;;;;;13.50;9.85;;;7.40;84.60;;;;;;4776270;30;20114;-73
2024/04/02 06:04:14;;;;;;;18.65;9.60;;;7.40;84.40;;;;;;4758942;30;20146;-74
2024/04/02 06:06:39;;;;;;;16.90;9.23;;;7.40;84.50;;;;;;4759626;30;20141;-75
2024/04/02 06:09:06;;;;;;;14.00;8.43;;;7.40;84.40;;;;;;4759833;30;20062;-75
2024/04/02 06:11:32;;;;;;;12.13;9.10;;;8.20;84.60;;;;;;4759063;30;20059;-74
2024/04/02 06:13:57;;;;;;;12.63;8.60;;;7.50;84.30;;;;;;4758604;29;20644;-74
2024/04/02 06:16:23;;;;;;;13.82;8.82;;;7.50;84.20;;;;;;4759212;30;20059;-73
2024/04/02 06:18:49;;;;;;;13.50;8.70;;;7.50;84.20;;;;;;4759446;30;20054;-74
2024/04/02 06:21:15;;;;;;;11.38;8.75;;;7.50;84.20;;;;;;4759185;30;20136;-74
2024/04/02 06:23:41;;;;;;;14.60;8.70;;;7.50;84.20;;;;;;4776133;29;20047;-74
2024/04/02 06:26:06;;;;;;;13.85;8.48;;;7.50;84.20;;;;;;4763182;30;20406;-73
2024/04/02 06:28:32;;;;;;;12.18;8.40;;;7.60;84.30;;;;;;4779211;30;20085;-74
2024/04/02 06:30:58;;;;;;;11.05;7.80;;;7.60;84.30;;;;;;4762718;30;20058;-74
2024/04/02 06:33:23;;;;;;;11.13;7.97;;;7.70;84.40;;;;;;4762808;30;20095;-75
2024/04/02 06:35:49;;;;;;;11.50;7.32;;;7.80;84.30;;;;;;4778643;30;20051;-74
2024/04/02 06:38:15;;;;;;;11.88;8.18;;;7.90;84.30;;;;;;4762008;30;20104;-74
2024/04/02 06:40:41;;;;;;;14.32;8.00;;;8.00;84.30;;;;;;4762863;30;20066;-74
2024/04/02 06:43:07;;;;;;;13.45;8.23;;;8.00;84.20;;;;;;4762283;30;20067;-73
2024/04/02 06:45:32;;;;;;;12.57;7.55;;;8.00;84.10;;;;;;4732839;30;20112;-74
2024/04/02 06:47:58;;;;;;;13.07;7.75;;;8.00;84.10;;;;;;4734159;30;20051;-74
2024/04/02 06:50:24;;;;;;;12.00;7.50;;;7.90;84.00;;;;;;4732010;30;20091;-74
2024/04/02 06:52:50;;;;;;;10.82;7.40;;;8.00;84.00;;;;;;4762434;30;20113;-74
2024/04/02 06:55:15;;;;;;;17.17;8.15;;;8.00;84.00;;;;;;4777444;29;20059;-74
2024/04/02 06:57:41;;;;;;;12.25;6.88;;;8.00;84.10;;;;;;4765967;30;20059;-74
2024/04/02 07:00:07;;;;;;;14.65;7.18;;;8.10;84.10;;;;;;4781132;30;20078;-74
2024/04/02 07:02:33;;;;;;;10.50;6.63;;;8.10;84.00;;;;;;4771977;30;20423;-74
2024/04/02 07:04:58;;;;;;;11.90;7.13;;;8.20;84.00;;;;;;4786777;29;20049;-73
2024/04/02 07:07:24;;;;;;;12.70;6.72;;;8.20;84.00;;;;;;4773310;30;20135;-74
2024/04/02 07:09:50;;;;;;;8.93;6.93;;;8.20;84.00;;;;;;4770031;30;20101;-74
2024/04/02 07:12:16;;;;;;;10.73;7.10;;;8.30;84.00;;;;;;4773643;30;20488;-75
2024/04/02 07:14:41;;;;;;;11.23;6.40;;;8.30;84.00;;;;;;4794771;29;20054;-75
2024/04/02 07:17:07;;;;;;;10.50;6.20;;;8.30;84.00;;;;;;4791146;29;20487;-75
2024/04/02 07:19:33;;;;;;;11.98;6.75;;;8.40;84.00;;;;;;4789607;29;20108;-76
2024/04/02 07:21:58;;;;;;;9.02;5.82;;;8.40;83.90;;;;;;4774259;29;20058;-76
2024/04/02 07:24:24;;;;;;;11.65;7.07;;;8.50;83.90;;;;;;4773753;30;20157;-76
2024/04/02 07:26:50;;;;;;;11.20;6.28;;;8.50;83.90;;;;;;4788092;30;20055;-76
2024/04/02 07:29:15;;;;;;;12.55;6.20;;;8.50;83.90;;;;;;4800274;29;20091;-77
2024/04/02 07:31:41;;;;;;;9.95;6.25;;;8.60;83.80;;;;;;4798326;29;20055;-77
2024/04/02 07:34:07;;;;;;;10.05;5.93;;;8.70;83.90;;;;;;4777716;29;20118;-79
2024/04/02 07:36:32;;;;;;;9.95;6.10;;;8.70;83.80;;;;;;4788720;29;20062;-79
2024/04/02 07:38:58;;;;;;;13.45;6.53;;;8.80;83.80;;;;;;4802087;29;20055;-80
2024/04/02 07:41:23;;;;;;;11.68;6.70;;;8.80;83.70;;;;;;4781577;29;20065;-81
2024/04/02 07:43:51;;;;;;;12.98;6.82;;;8.90;83.70;;;;;;4777720;29;20092;-81
2024/04/02 07:46:17;;;;;;;11.68;7.18;;;8.90;83.70;;;;;;4789654;29;20091;-83
2024/04/02 07:48:43;;;;;;;12.10;7.22;;;9.00;83.70;;;;;;4765898;29;20051;-82
2024/04/02 07:51:14;;;;;;;14.65;7.07;;;9.10;83.80;;;;;;4802381;29;20203;-82
2024/04/02 07:53:48;;;;;;;10.95;7.07;;;9.10;83.90;;;;;;4771224;30;20396;-83
2024/04/02 07:56:45;;;;;;;11.98;6.82;;;9.20;83.80;;;;;;4756377;30;20415;-82
2024/04/02 07:59:17;;;;;;;10.93;7.50;;;9.20;83.70;;;;;;4787737;29;20507;-82
2024/04/02 08:01:57;;;;;;;12.63;7.10;;;9.30;83.70;;;;;;4762737;29;20054;-83
2024/04/02 08:05:07;;;;;;;12.00;6.72;;;9.30;83.60;;;;;;4755202;30;20113;-82
2024/04/02 08:20:01;;;;;;;;;;;;;;;;;;;;;
2024/04/02 13:23:54;;;;;;;6.47;4.03;;;13.40;79.20;;;;;;1220480;27;20308;-76
2024/04/02 16:12:14;;;;;;;4.22;2.95;;;11.90;82.00;;;;;;4921253;24;20054;-79
2024/04/02 16:14:50;;;;;;;5.40;3.30;;;11.80;81.70;;;;;;4794226;29;20076;-77
2024/04/02 16:17:16;;;;;;;4.30;3.30;;;11.80;81.80;;;;;;4784374;29;20054;-77
2024/04/02 16:19:41;;;;;;;4.65;2.63;;;11.90;81.70;;;;;;4793240;29;20086;-77
2024/04/02 16:22:13;;;;;;;3.78;2.17;;;11.70;81.70;;;;;;4774655;29;20051;-77
